Time;durP1;ratioP1;P1;durP2;ratioP2;P2;SDS_P1;SDS_P2;PMS_P1;PMS_P2;Temp;Humidity;BMP_temperature;BMP_pressure;BME280_temperature;BME280_humidity;BME280_pressure;Samples;Min_cycle;Max_cycle;Signal;HPM_P1;HPM_P2
2022/01/02 00:02:00;;;;;;;10.97;4.97;;;6.80;99.90;;;;;;5088525;28;20278;-61
2022/01/02 00:04:31;;;;;;;11.60;5.43;;;6.80;99.90;;;;;;5091878;28;20195;-61
2022/01/02 00:07:05;;;;;;;9.47;4.67;;;6.70;99.90;;;;;;5079852;28;20204;-61
2022/01/02 00:09:35;;;;;;;11.33;5.03;;;6.70;99.90;;;;;;5086757;28;20210;-61
2022/01/02 00:12:09;;;;;;;10.63;4.87;;;6.70;99.90;;;;;;5090744;28;20196;-60
2022/01/02 00:14:38;;;;;;;10.07;5.17;;;6.70;99.90;;;;;;5088192;28;20677;-61
2022/01/02 00:17:07;;;;;;;10.13;4.67;;;6.80;99.90;;;;;;5072966;28;20283;-61
2022/01/02 00:19:37;;;;;;;9.50;4.57;;;6.80;99.90;;;;;;5075200;28;20253;-61
2022/01/02 00:22:13;;;;;;;6.57;3.70;;;6.80;99.90;;;;;;5076054;28;20193;-61
2022/01/02 00:24:42;;;;;;;9.27;4.57;;;6.80;99.90;;;;;;5084868;28;20641;-60
2022/01/02 00:27:10;;;;;;;7.00;3.37;;;6.80;99.90;;;;;;5076722;28;20299;-60
2022/01/02 00:29:40;;;;;;;6.87;3.63;;;6.80;99.90;;;;;;5085185;28;20319;-61
2022/01/02 00:32:09;;;;;;;7.70;4.07;;;6.80;99.90;;;;;;5072571;28;20355;-62
2022/01/02 00:34:37;;;;;;;7.57;3.50;;;6.80;99.90;;;;;;5091456;28;20226;-61
2022/01/02 00:37:06;;;;;;;6.67;3.17;;;6.70;99.90;;;;;;5090402;28;20207;-62
2022/01/02 00:39:34;;;;;;;5.47;3.00;;;6.70;99.90;;;;;;5072788;28;20188;-61
2022/01/02 00:42:07;;;;;;;7.67;3.30;;;6.70;99.90;;;;;;5069909;28;20686;-61
2022/01/02 00:44:46;;;;;;;7.00;4.00;;;6.70;99.90;;;;;;5080952;28;20253;-61
2022/01/02 00:47:20;;;;;;;7.23;3.40;;;6.70;99.90;;;;;;5074752;28;20640;-61
2022/01/02 00:49:59;;;;;;;6.40;3.07;;;6.70;99.90;;;;;;5055816;28;20215;-61
2022/01/02 00:52:29;;;;;;;5.17;2.67;;;6.70;99.90;;;;;;5081715;28;20255;-62
2022/01/02 00:54:57;;;;;;;5.93;3.03;;;6.70;99.90;;;;;;5091945;28;20184;-62
2022/01/02 00:57:31;;;;;;;5.80;2.80;;;6.70;99.90;;;;;;5055267;28;20210;-61
2022/01/02 01:00:06;;;;;;;7.53;3.27;;;6.70;99.90;;;;;;5072737;28;20521;-61
2022/01/02 01:02:39;;;;;;;6.97;3.03;;;6.80;99.90;;;;;;5062291;28;20203;-62
2022/01/02 01:05:08;;;;;;;4.73;2.53;;;6.80;99.90;;;;;;5071398;28;20296;-62
2022/01/02 01:07:38;;;;;;;3.13;2.33;;;6.80;99.90;;;;;;5090434;28;20234;-61
2022/01/02 01:10:08;;;;;;;3.30;2.50;;;6.80;99.90;;;;;;5071323;28;20307;-60
2022/01/02 01:12:35;;;;;;;4.93;2.13;;;6.90;99.90;;;;;;5089340;28;20193;-60
2022/01/02 01:15:05;;;;;;;2.17;1.70;;;6.90;99.90;;;;;;5089939;28;20271;-61
2022/01/02 01:17:33;;;;;;;3.93;2.53;;;6.90;99.90;;;;;;5071643;28;20200;-62
2022/01/02 01:20:00;;;;;;;5.73;2.70;;;6.90;99.90;;;;;;5072414;28;20599;-62
2022/01/02 01:22:27;;;;;;;4.43;2.20;;;6.90;99.90;;;;;;5071492;28;20196;-62
2022/01/02 01:24:57;;;;;;;5.10;2.70;;;6.90;99.90;;;;;;5071348;28;20197;-61
2022/01/02 01:27:26;;;;;;;4.53;2.40;;;6.90;99.90;;;;;;5064244;28;20207;-60
2022/01/02 01:29:53;;;;;;;4.40;2.43;;;6.80;99.90;;;;;;5088766;28;20207;-61
2022/01/02 01:32:20;;;;;;;3.73;2.40;;;6.80;99.90;;;;;;5062733;28;20204;-61
2022/01/02 01:34:47;;;;;;;3.67;2.27;;;6.80;99.90;;;;;;5078397;28;20245;-60
2022/01/02 01:37:14;;;;;;;4.90;2.57;;;6.80;99.90;;;;;;5089231;28;20188;-60
2022/01/02 01:39:42;;;;;;;4.60;2.67;;;6.80;99.90;;;;;;5070552;28;20196;-60
2022/01/02 01:42:12;;;;;;;3.87;2.20;;;6.80;99.90;;;;;;5066310;28;20208;-60
2022/01/02 01:44:52;;;;;;;5.93;2.70;;;6.80;99.90;;;;;;5069711;28;20302;-60
2022/01/02 01:47:20;;;;;;;3.70;2.33;;;6.80;99.90;;;;;;5076873;28;20214;-60
2022/01/02 01:49:48;;;;;;;7.23;2.20;;;6.80;99.90;;;;;;5064397;28;20576;-60
2022/01/02 01:52:16;;;;;;;3.03;2.03;;;6.90;99.90;;;;;;5061441;28;20324;-60
2022/01/02 01:54:44;;;;;;;2.83;1.97;;;6.90;99.90;;;;;;5061993;28;20200;-60
2022/01/02 01:57:13;;;;;;;5.10;2.97;;;6.90;99.90;;;;;;5070193;28;20623;-61
2022/01/02 01:59:40;;;;;;;5.50;2.50;;;6.80;99.90;;;;;;5059897;28;20253;-61
2022/01/02 02:02:08;;;;;;;5.80;2.80;;;6.90;99.90;;;;;;5061449;28;20211;-62
2022/01/02 02:04:36;;;;;;;4.77;2.60;;;6.90;99.90;;;;;;5064911;28;20694;-61
2022/01/02 02:07:04;;;;;;;3.83;2.30;;;6.90;99.90;;;;;;5088901;28;20253;-62
2022/01/02 02:09:46;;;;;;;4.00;2.10;;;6.80;99.90;;;;;;5085015;28;20339;-61
2022/01/02 02:12:15;;;;;;;2.97;2.27;;;6.80;99.90;;;;;;5055819;28;20192;-61
2022/01/02 02:14:44;;;;;;;2.83;1.90;;;6.80;99.90;;;;;;5072408;28;20204;-61
2022/01/02 02:17:12;;;;;;;2.93;2.10;;;6.70;99.90;;;;;;5088753;28;20277;-61
2022/01/02 02:19:40;;;;;;;3.73;1.93;;;6.80;99.90;;;;;;5067519;28;20689;-62
2022/01/02 02:22:09;;;;;;;3.47;1.80;;;6.70;99.90;;;;;;5069972;28;20226;-61
2022/01/02 02:24:37;;;;;;;3.80;1.90;;;6.70;99.90;;;;;;5071948;28;20679;-61
2022/01/02 02:27:04;;;;;;;2.90;1.63;;;6.70;99.90;;;;;;5068416;28;20543;-62
2022/01/02 02:29:32;;;;;;;3.80;2.00;;;6.70;99.90;;;;;;5060841;28;20200;-62
2022/01/02 02:31:59;;;;;;;3.87;2.10;;;6.70;99.90;;;;;;5073684;28;20215;-61
2022/01/02 02:34:26;;;;;;;2.67;1.83;;;6.70;99.90;;;;;;5069085;28;20355;-61
2022/01/02 02:36:54;;;;;;;2.63;1.97;;;6.70;99.90;;;;;;5072982;28;20200;-61
2022/01/02 02:39:22;;;;;;;3.77;2.07;;;6.70;99.90;;;;;;5062303;28;20268;-61
2022/01/02 02:41:50;;;;;;;5.07;2.70;;;6.70;99.90;;;;;;5057807;28;20203;-62
2022/01/02 02:44:32;;;;;;;3.17;2.10;;;6.70;99.90;;;;;;5064436;28;20290;-62
2022/01/02 02:49:45;;;;;;;9.33;3.97;;;6.80;99.90;;;;;;5062151;28;20287;-62
2022/01/02 02:52:21;;;;;;;6.03;3.10;;;6.70;99.90;;;;;;5080538;28;20289;-61
2022/01/02 02:54:51;;;;;;;5.10;3.40;;;6.70;99.90;;;;;;5079606;28;20198;-61
2022/01/02 02:57:19;;;;;;;9.33;3.63;;;6.70;99.90;;;;;;5068973;28;20206;-60
2022/01/02 02:59:46;;;;;;;9.90;4.53;;;6.70;99.90;;;;;;5061951;28;20215;-61
2022/01/02 03:02:14;;;;;;;12.17;4.70;;;6.70;99.90;;;;;;5064317;28;20211;-61
2022/01/02 03:04:45;;;;;;;16.07;6.57;;;6.70;99.90;;;;;;5072099;28;20778;-61
2022/01/02 03:07:12;;;;;;;9.90;5.10;;;6.70;99.90;;;;;;5061042;28;20284;-61
2022/01/02 03:09:46;;;;;;;8.23;4.73;;;6.70;99.90;;;;;;5057595;28;20266;-62
2022/01/02 03:12:15;;;;;;;12.57;6.33;;;6.70;99.90;;;;;;5062790;28;20211;-61
2022/01/02 03:14:47;;;;;;;12.57;5.83;;;6.80;99.90;;;;;;5061512;28;20190;-61
2022/01/02 03:17:14;;;;;;;10.77;5.23;;;6.80;99.90;;;;;;5064478;28;20579;-61
2022/01/02 03:19:42;;;;;;;15.27;7.13;;;6.80;99.90;;;;;;5069418;28;20286;-61
2022/01/02 03:22:13;;;;;;;10.50;5.77;;;6.80;99.90;;;;;;5074118;28;20562;-60
2022/01/02 03:24:40;;;;;;;11.07;5.53;;;6.80;99.90;;;;;;5072373;28;20223;-61
2022/01/02 03:27:07;;;;;;;9.67;4.80;;;6.90;99.90;;;;;;5088599;28;20367;-61
2022/01/02 03:29:35;;;;;;;11.97;6.07;;;6.90;99.90;;;;;;5090726;28;20594;-61
2022/01/02 03:32:03;;;;;;;10.03;5.33;;;6.90;99.90;;;;;;5073548;28;20224;-61
2022/01/02 03:34:30;;;;;;;12.97;6.80;;;6.90;99.90;;;;;;5091338;28;20203;-60
2022/01/02 03:36:58;;;;;;;10.70;6.57;;;6.90;99.90;;;;;;5072361;28;20204;-61
2022/01/02 03:39:25;;;;;;;10.17;5.90;;;6.90;99.90;;;;;;5072075;28;20214;-61
2022/01/02 03:41:53;;;;;;;12.83;6.13;;;6.80;99.90;;;;;;5071411;28;20682;-62
2022/01/02 03:44:20;;;;;;;13.77;7.33;;;6.80;99.90;;;;;;5072152;28;20196;-61
2022/01/02 03:46:49;;;;;;;13.33;6.37;;;6.90;99.90;;;;;;5061814;28;20666;-61
2022/01/02 03:49:16;;;;;;;11.57;6.17;;;6.90;99.90;;;;;;5092391;28;20180;-60
2022/01/02 03:51:43;;;;;;;8.87;5.87;;;6.90;99.90;;;;;;5058110;28;20228;-61
2022/01/02 03:54:10;;;;;;;9.63;5.97;;;6.90;99.90;;;;;;5064988;28;20211;-62
2022/01/02 03:56:38;;;;;;;16.83;7.17;;;6.90;99.90;;;;;;5072795;28;20211;-61
2022/01/02 03:59:05;;;;;;;10.27;6.20;;;6.90;99.90;;;;;;5072464;28;20202;-60
2022/01/02 04:01:32;;;;;;;10.17;5.43;;;7.00;99.90;;;;;;5066457;28;20197;-60
2022/01/02 04:04:01;;;;;;;8.17;5.23;;;7.00;99.90;;;;;;5073552;28;20204;-61
2022/01/02 04:06:28;;;;;;;7.67;5.10;;;7.00;99.90;;;;;;5071897;28;20215;-61
2022/01/02 04:08:55;;;;;;;7.20;4.53;;;7.00;99.90;;;;;;5073573;28;20294;-61
2022/01/02 04:11:23;;;;;;;9.43;5.27;;;7.00;99.90;;;;;;5059161;28;20689;-60
2022/01/02 04:13:51;;;;;;;7.43;4.93;;;7.10;99.90;;;;;;5062016;28;20742;-62
2022/01/02 04:16:18;;;;;;;8.83;4.93;;;7.10;99.90;;;;;;5069279;28;20193;-61
2022/01/02 04:18:45;;;;;;;11.77;6.03;;;7.10;99.90;;;;;;5065251;28;20193;-61
2022/01/02 04:21:14;;;;;;;9.93;6.07;;;7.20;99.90;;;;;;5069728;28;20720;-62
2022/01/02 04:23:42;;;;;;;9.20;5.60;;;7.20;99.90;;;;;;5073590;28;20196;-62
2022/01/02 04:26:09;;;;;;;8.37;5.20;;;7.20;99.90;;;;;;5068081;28;20201;-61
2022/01/02 04:28:36;;;;;;;6.27;4.10;;;7.30;99.90;;;;;;5083451;28;20662;-62
2022/01/02 04:31:04;;;;;;;5.93;3.90;;;7.30;99.90;;;;;;5066190;28;20253;-62
2022/01/02 04:33:32;;;;;;;3.93;3.53;;;7.30;99.90;;;;;;5073383;28;20207;-62
2022/01/02 04:36:00;;;;;;;5.90;4.00;;;7.30;99.90;;;;;;5059257;28;20235;-61
2022/01/02 04:38:28;;;;;;;4.40;3.47;;;7.30;99.90;;;;;;5061241;28;20296;-60
2022/01/02 04:40:56;;;;;;;5.73;3.57;;;7.30;99.90;;;;;;5077462;28;20597;-61
2022/01/02 04:43:23;;;;;;;5.27;3.83;;;7.30;99.90;;;;;;5072423;28;20193;-60
2022/01/02 04:45:50;;;;;;;4.57;3.23;;;7.20;99.90;;;;;;5065769;28;20254;-60
2022/01/02 04:48:18;;;;;;;3.73;3.03;;;7.20;99.90;;;;;;5066190;28;20212;-61
2022/01/02 04:50:45;;;;;;;3.80;3.00;;;7.30;99.90;;;;;;5060318;28;20306;-61
2022/01/02 04:53:13;;;;;;;3.77;2.80;;;7.30;99.90;;;;;;5066429;28;21028;-60
2022/01/02 04:55:43;;;;;;;5.03;3.50;;;7.30;99.90;;;;;;5072646;28;20227;-60
2022/01/02 04:58:10;;;;;;;4.53;3.00;;;7.30;99.90;;;;;;5069084;28;20199;-61
2022/01/02 05:00:38;;;;;;;4.83;3.23;;;7.40;99.90;;;;;;5059322;28;20337;-61
2022/01/02 05:03:07;;;;;;;4.87;3.23;;;7.40;99.90;;;;;;5084135;28;20197;-62
2022/01/02 05:05:35;;;;;;;5.80;3.77;;;7.40;99.90;;;;;;5061789;28;20227;-61
2022/01/02 05:08:02;;;;;;;3.83;2.90;;;7.40;99.90;;;;;;5083222;28;20201;-62
2022/01/02 05:10:29;;;;;;;3.30;2.80;;;7.40;99.90;;;;;;5064890;28;20213;-61
2022/01/02 05:12:59;;;;;;;3.17;2.50;;;7.50;99.90;;;;;;5070682;28;20243;-61
2022/01/02 05:15:26;;;;;;;3.87;2.77;;;7.50;99.90;;;;;;5058505;28;20307;-62
2022/01/02 05:17:54;;;;;;;3.63;2.73;;;7.50;99.90;;;;;;5059318;28;20236;-61
2022/01/02 05:20:22;;;;;;;4.23;3.30;;;7.60;99.90;;;;;;5060878;28;20265;-61
2022/01/02 05:22:49;;;;;;;3.13;2.83;;;7.60;99.90;;;;;;5089297;28;20282;-61
2022/01/02 05:25:16;;;;;;;3.00;2.73;;;7.60;99.90;;;;;;5059838;28;20208;-62
2022/01/02 05:27:44;;;;;;;3.17;2.87;;;7.70;99.90;;;;;;5067785;28;20667;-60
2022/01/02 05:30:13;;;;;;;5.93;3.23;;;7.70;99.90;;;;;;5077512;28;20181;-61
2022/01/02 05:32:40;;;;;;;4.70;3.53;;;7.70;99.90;;;;;;5089227;28;20200;-60
2022/01/02 05:35:08;;;;;;;5.20;3.53;;;7.80;99.90;;;;;;5090265;28;20214;-60
2022/01/02 05:37:35;;;;;;;4.97;3.37;;;7.80;99.90;;;;;;5089548;28;20271;-62
2022/01/02 05:40:03;;;;;;;9.77;5.97;;;7.90;99.90;;;;;;5058750;28;20285;-61
2022/01/02 05:42:30;;;;;;;9.07;5.37;;;7.90;99.90;;;;;;5051837;28;20204;-62
2022/01/02 05:44:58;;;;;;;10.53;6.40;;;8.00;99.90;;;;;;5092236;28;20572;-62
2022/01/02 05:47:26;;;;;;;8.23;5.60;;;8.00;99.90;;;;;;5085079;28;20220;-61
2022/01/02 05:49:53;;;;;;;7.23;4.23;;;8.00;99.90;;;;;;5087258;28;20200;-61
2022/01/02 05:52:20;;;;;;;8.07;5.37;;;8.00;99.90;;;;;;5085461;28;20596;-62
2022/01/02 05:54:48;;;;;;;9.30;6.03;;;8.10;99.90;;;;;;5058632;28;20572;-62
2022/01/02 05:57:15;;;;;;;9.07;5.50;;;8.10;99.90;;;;;;5059529;28;20209;-62
2022/01/02 05:59:42;;;;;;;13.47;7.37;;;8.10;99.90;;;;;;5070911;28;20200;-62
2022/01/02 06:02:09;;;;;;;9.73;5.93;;;8.10;99.90;;;;;;5062702;28;20231;-61
2022/01/02 06:04:38;;;;;;;16.83;8.07;;;8.10;99.90;;;;;;5088114;28;20231;-61
2022/01/02 06:07:05;;;;;;;12.77;6.50;;;8.10;99.90;;;;;;5089425;28;20215;-62
2022/01/02 06:09:33;;;;;;;12.40;7.40;;;8.10;99.90;;;;;;5068591;28;20299;-61
2022/01/02 06:12:01;;;;;;;11.80;7.20;;;8.20;99.90;;;;;;5070123;28;20684;-61
2022/01/02 06:14:28;;;;;;;12.57;7.93;;;8.20;99.90;;;;;;5067685;28;20204;-61
2022/01/02 06:16:55;;;;;;;16.20;8.80;;;8.20;99.90;;;;;;5063398;28;20660;-61
2022/01/02 06:19:23;;;;;;;10.60;6.67;;;8.20;99.90;;;;;;5075714;28;20213;-61
2022/01/02 06:21:51;;;;;;;8.93;6.60;;;8.20;99.90;;;;;;5074262;28;20200;-61
2022/01/02 06:24:19;;;;;;;15.33;8.23;;;8.30;99.90;;;;;;5075995;28;20233;-61
2022/01/02 06:26:46;;;;;;;15.37;8.33;;;8.30;99.90;;;;;;5090640;28;20192;-61
2022/01/02 06:29:13;;;;;;;10.57;6.67;;;8.30;99.90;;;;;;5074402;28;20695;-60
2022/01/02 06:31:40;;;;;;;14.77;7.10;;;8.30;99.90;;;;;;5074290;28;20339;-60
2022/01/02 06:34:07;;;;;;;16.53;9.10;;;8.30;99.90;;;;;;5062385;28;20255;-60
2022/01/02 06:36:36;;;;;;;15.23;8.67;;;8.30;99.90;;;;;;5056010;28;20635;-61
2022/01/02 06:39:05;;;;;;;14.30;8.53;;;8.40;99.90;;;;;;5069439;28;20281;-60
2022/01/02 06:41:32;;;;;;;15.63;8.60;;;8.30;99.90;;;;;;5078561;28;20275;-61
2022/01/02 06:43:59;;;;;;;17.30;9.07;;;8.30;99.90;;;;;;5076010;28;20331;-60
2022/01/02 06:46:27;;;;;;;13.63;8.60;;;8.40;99.90;;;;;;5092845;28;20188;-60
2022/01/02 06:48:54;;;;;;;18.57;10.10;;;8.40;99.90;;;;;;5093342;28;20197;-60
2022/01/02 06:51:22;;;;;;;20.00;9.83;;;8.40;99.90;;;;;;5069068;28;20197;-61
2022/01/02 06:53:49;;;;;;;12.27;7.90;;;8.40;99.90;;;;;;5068884;28;20699;-61
2022/01/02 06:56:17;;;;;;;15.40;8.43;;;8.40;99.90;;;;;;5090443;28;20204;-62
2022/01/02 06:58:44;;;;;;;21.63;11.90;;;8.40;99.90;;;;;;5061523;28;20278;-62
2022/01/02 07:01:12;;;;;;;16.20;9.53;;;8.50;99.90;;;;;;5062840;28;20197;-62
2022/01/02 07:03:39;;;;;;;13.33;8.67;;;8.50;99.90;;;;;;5068742;28;20209;-62
2022/01/02 07:06:06;;;;;;;17.43;9.43;;;8.50;99.90;;;;;;5066293;28;20276;-62
2022/01/02 07:08:33;;;;;;;15.73;8.50;;;8.60;99.90;;;;;;5074469;28;20236;-62
2022/01/02 07:11:01;;;;;;;13.27;8.07;;;8.60;99.90;;;;;;5063206;28;20203;-62
2022/01/02 07:13:29;;;;;;;14.33;8.23;;;8.60;99.90;;;;;;5090108;28;20209;-62
2022/01/02 07:15:56;;;;;;;14.63;8.53;;;8.70;99.90;;;;;;5092273;28;20193;-61
2022/01/02 07:18:24;;;;;;;18.97;10.77;;;8.70;99.90;;;;;;5092203;28;20197;-61
2022/01/02 07:20:51;;;;;;;14.53;9.10;;;8.70;99.90;;;;;;5061065;28;20289;-61
2022/01/02 07:23:18;;;;;;;20.47;10.13;;;8.70;99.90;;;;;;5092580;28;20192;-61
2022/01/02 07:25:45;;;;;;;13.63;8.43;;;8.70;99.90;;;;;;5062712;28;20285;-61
2022/01/02 07:28:12;;;;;;;13.13;7.60;;;8.80;99.90;;;;;;5086250;28;20238;-61
2022/01/02 07:30:41;;;;;;;15.27;8.77;;;8.80;99.90;;;;;;5076118;28;20601;-61
2022/01/02 07:33:08;;;;;;;10.53;6.80;;;8.80;99.90;;;;;;5056149;28;20215;-61
2022/01/02 07:35:35;;;;;;;14.53;8.00;;;8.90;99.90;;;;;;5090838;28;20257;-61
2022/01/02 07:38:02;;;;;;;11.07;6.63;;;8.90;99.90;;;;;;5092232;28;20279;-61
2022/01/02 07:40:29;;;;;;;7.63;5.50;;;8.90;99.90;;;;;;5071632;28;20215;-61
2022/01/02 07:42:56;;;;;;;17.77;8.70;;;9.00;99.90;;;;;;5091077;28;20202;-61
2022/01/02 07:45:30;;;;;;;12.43;7.90;;;9.00;99.90;;;;;;5065808;28;20209;-61
2022/01/02 07:47:59;;;;;;;14.13;8.63;;;9.00;99.90;;;;;;5075085;28;20202;-62
2022/01/02 07:50:26;;;;;;;12.83;8.33;;;9.00;99.90;;;;;;5077493;28;20660;-62
2022/01/02 07:52:53;;;;;;;17.03;9.60;;;9.00;99.90;;;;;;5069456;28;20337;-60
2022/01/02 07:55:20;;;;;;;16.70;9.70;;;9.10;99.90;;;;;;5066592;28;20229;-61
2022/01/02 07:57:48;;;;;;;17.47;10.90;;;9.10;99.90;;;;;;5073892;28;20227;-61
2022/01/02 08:00:16;;;;;;;21.00;11.70;;;9.10;99.90;;;;;;5076496;28;20532;-61
2022/01/02 08:02:44;;;;;;;13.77;9.07;;;9.20;99.90;;;;;;5087881;28;20205;-61
2022/01/02 08:05:12;;;;;;;16.27;9.87;;;9.30;99.90;;;;;;5077235;28;20255;-61
2022/01/02 08:07:40;;;;;;;16.17;9.63;;;9.30;99.90;;;;;;5081086;28;20197;-61
2022/01/02 08:10:08;;;;;;;26.73;13.80;;;9.30;99.90;;;;;;5091459;28;20679;-61
2022/01/02 08:12:35;;;;;;;20.17;11.90;;;9.30;99.90;;;;;;5090911;28;20257;-61
2022/01/02 08:15:04;;;;;;;17.97;10.50;;;9.30;99.90;;;;;;5066844;28;20205;-60
2022/01/02 08:17:31;;;;;;;22.03;12.20;;;9.40;99.90;;;;;;5074224;28;20543;-61
2022/01/02 08:19:58;;;;;;;17.30;10.47;;;9.40;99.90;;;;;;5070832;28;20201;-61
2022/01/02 08:22:26;;;;;;;26.37;13.03;;;9.50;99.90;;;;;;5076684;28;20202;-62
2022/01/02 08:24:53;;;;;;;20.67;10.57;;;9.50;99.90;;;;;;5084347;28;20185;-60
2022/01/02 08:27:20;;;;;;;19.23;11.27;;;9.40;99.90;;;;;;5089105;28;20663;-61
2022/01/02 08:29:47;;;;;;;20.03;10.20;;;9.60;99.90;;;;;;5091727;28;20192;-61
2022/01/02 08:32:15;;;;;;;13.90;9.07;;;9.60;99.90;;;;;;5089048;28;20236;-61
2022/01/02 08:34:42;;;;;;;15.93;9.57;;;9.70;99.90;;;;;;5088176;28;20197;-61
2022/01/02 08:37:09;;;;;;;14.70;8.17;;;9.70;99.90;;;;;;5070306;28;20725;-61
2022/01/02 08:39:38;;;;;;;12.43;8.23;;;9.70;99.90;;;;;;5072325;28;20198;-60
2022/01/02 08:42:06;;;;;;;17.37;9.53;;;9.80;99.90;;;;;;5087950;28;20212;-62
2022/01/02 08:44:33;;;;;;;15.87;9.07;;;9.80;99.90;;;;;;5062538;28;20249;-60
2022/01/02 08:47:00;;;;;;;13.00;8.20;;;9.80;99.90;;;;;;5080214;28;20205;-60
2022/01/02 08:49:27;;;;;;;14.93;8.67;;;9.90;99.90;;;;;;5091244;28;20197;-61
2022/01/02 08:51:55;;;;;;;13.63;8.23;;;9.90;99.90;;;;;;5090230;28;20206;-60
2022/01/02 08:54:22;;;;;;;13.23;8.37;;;9.90;99.90;;;;;;5091329;28;20260;-60
2022/01/02 08:56:50;;;;;;;12.50;7.50;;;9.90;99.90;;;;;;5080303;28;20198;-61
2022/01/02 08:59:21;;;;;;;13.40;7.83;;;10.00;99.90;;;;;;5081856;28;20631;-61
2022/01/02 09:01:48;;;;;;;19.23;9.67;;;10.00;99.90;;;;;;5082537;28;20268;-60
2022/01/02 09:04:15;;;;;;;13.27;7.83;;;10.00;99.90;;;;;;5082179;28;20520;-61
2022/01/02 09:06:42;;;;;;;14.37;7.90;;;10.00;99.90;;;;;;5089003;28;20193;-61
2022/01/02 09:09:10;;;;;;;11.27;6.40;;;10.10;99.90;;;;;;5064672;28;20214;-62
2022/01/02 09:11:37;;;;;;;11.60;7.33;;;10.10;99.90;;;;;;5081309;28;20202;-61
2022/01/02 09:14:05;;;;;;;8.07;5.77;;;10.10;99.90;;;;;;5079202;28;20548;-61
2022/01/02 09:16:33;;;;;;;8.23;5.63;;;10.10;99.90;;;;;;5089886;28;20240;-61
2022/01/02 09:19:00;;;;;;;10.00;6.90;;;10.10;99.90;;;;;;5089907;28;20283;-60
2022/01/02 09:21:28;;;;;;;9.97;5.97;;;10.10;99.90;;;;;;5083016;28;20276;-61
2022/01/02 09:23:55;;;;;;;8.80;5.43;;;10.20;99.90;;;;;;5090581;28;20191;-61
2022/01/02 09:26:22;;;;;;;14.53;7.47;;;10.20;99.90;;;;;;5087537;28;20194;-62
2022/01/02 09:28:49;;;;;;;11.13;6.67;;;10.20;99.90;;;;;;5083082;28;20606;-61
2022/01/02 09:31:17;;;;;;;18.70;8.70;;;10.20;99.90;;;;;;5086124;28;20605;-61
2022/01/02 09:33:44;;;;;;;13.53;6.70;;;10.20;99.90;;;;;;5081208;28;20276;-61
2022/01/02 09:36:11;;;;;;;7.00;5.20;;;10.20;99.90;;;;;;5082221;28;20195;-61
2022/01/02 09:38:38;;;;;;;8.37;5.63;;;10.20;99.90;;;;;;5079862;28;20206;-61
2022/01/02 09:41:06;;;;;;;15.70;8.37;;;10.20;99.90;;;;;;5089021;28;20660;-61
2022/01/02 09:43:33;;;;;;;14.80;8.80;;;10.30;99.90;;;;;;5071485;28;20720;-61
2022/01/02 09:46:02;;;;;;;17.77;9.27;;;10.30;99.90;;;;;;5061334;28;20652;-60
2022/01/02 09:48:31;;;;;;;16.67;9.60;;;10.20;99.90;;;;;;5090539;28;20203;-61
2022/01/02 09:50:59;;;;;;;19.90;9.97;;;10.20;99.90;;;;;;5081698;28;20195;-61
2022/01/02 09:53:27;;;;;;;22.80;10.33;;;10.20;99.90;;;;;;5075992;28;20243;-60
2022/01/02 09:55:54;;;;;;;19.90;10.07;;;10.20;99.90;;;;;;5083877;28;20688;-60
2022/01/02 09:58:21;;;;;;;17.40;9.70;;;10.20;99.90;;;;;;5075941;28;20572;-62
2022/01/02 10:00:49;;;;;;;16.00;8.97;;;10.10;99.90;;;;;;5074138;28;20206;-61
2022/01/02 10:03:18;;;;;;;13.57;8.77;;;10.10;99.90;;;;;;5086408;28;20263;-61
2022/01/02 10:05:59;;;;;;;12.50;8.13;;;10.10;99.90;;;;;;5087973;28;20205;-60
2022/01/02 10:08:29;;;;;;;12.30;8.13;;;10.10;99.90;;;;;;5085625;28;20199;-60
2022/01/02 10:11:01;;;;;;;14.87;7.50;;;10.10;99.90;;;;;;5086555;28;20199;-61
2022/01/02 10:13:40;;;;;;;9.93;6.83;;;10.20;99.90;;;;;;5077402;28;20210;-60
2022/01/02 10:16:23;;;;;;;10.97;7.03;;;10.20;99.90;;;;;;5083234;28;20192;-60
2022/01/02 10:18:52;;;;;;;12.67;7.10;;;10.20;99.90;;;;;;5063775;28;20629;-60
2022/01/02 10:21:31;;;;;;;15.87;8.10;;;10.20;99.90;;;;;;5076471;28;20226;-60
2022/01/02 10:24:17;;;;;;;12.70;7.67;;;10.20;99.90;;;;;;5086750;28;20187;-60
2022/01/02 10:27:07;;;;;;;11.87;7.60;;;10.20;99.90;;;;;;5084082;28;20201;-60
2022/01/02 10:29:50;;;;;;;12.13;7.20;;;10.20;99.90;;;;;;5082282;28;20278;-59
2022/01/02 10:32:33;;;;;;;14.70;8.10;;;10.20;99.90;;;;;;5086593;28;20190;-61
2022/01/02 10:35:17;;;;;;;15.77;7.10;;;10.30;99.90;;;;;;5084372;28;20593;-61
2022/01/02 10:37:50;;;;;;;19.20;9.33;;;10.30;99.90;;;;;;5060310;28;20309;-61
2022/01/02 10:40:29;;;;;;;11.83;7.13;;;10.30;99.90;;;;;;5085007;28;20190;-61
2022/01/02 10:42:57;;;;;;;10.77;7.17;;;10.30;99.90;;;;;;5063166;28;20200;-61
2022/01/02 10:45:32;;;;;;;8.67;6.20;;;10.30;99.90;;;;;;5084607;28;20220;-60
2022/01/02 10:47:59;;;;;;;9.93;6.40;;;10.30;99.90;;;;;;5075696;28;20226;-61
2022/01/02 10:50:26;;;;;;;13.00;6.10;;;10.40;99.90;;;;;;5069525;28;20222;-61
2022/01/02 10:52:55;;;;;;;10.77;6.70;;;10.40;99.90;;;;;;5074061;28;20232;-60
2022/01/02 10:55:24;;;;;;;10.30;6.90;;;10.40;99.90;;;;;;5074517;28;20204;-62
2022/01/02 10:57:54;;;;;;;13.27;7.47;;;10.40;99.90;;;;;;5079574;28;20578;-59
2022/01/02 11:00:23;;;;;;;10.17;6.70;;;10.40;99.90;;;;;;5083405;28;20258;-60
2022/01/02 11:02:50;;;;;;;10.60;6.00;;;10.40;99.90;;;;;;5080713;28;20200;-60
2022/01/02 11:05:20;;;;;;;10.50;7.00;;;10.30;99.90;;;;;;5085656;28;20198;-60
2022/01/02 11:07:49;;;;;;;13.00;6.83;;;10.30;99.90;;;;;;5090310;28;20570;-61
2022/01/02 11:10:19;;;;;;;7.93;6.00;;;10.30;99.90;;;;;;5086688;28;20198;-61
2022/01/02 11:12:47;;;;;;;8.07;5.70;;;10.30;99.90;;;;;;5083471;28;20311;-59
2022/01/02 11:15:16;;;;;;;8.57;5.40;;;10.30;99.90;;;;;;5088877;28;20191;-59
2022/01/02 11:17:44;;;;;;;10.53;6.87;;;10.40;99.90;;;;;;5088099;28;20194;-61
2022/01/02 11:20:14;;;;;;;10.10;6.77;;;10.40;99.90;;;;;;5086485;28;20197;-60
2022/01/02 11:22:47;;;;;;;7.77;5.63;;;10.40;99.90;;;;;;5073599;28;20208;-61
2022/01/02 11:25:23;;;;;;;10.00;5.80;;;10.40;99.90;;;;;;5071273;28;20563;-61
2022/01/02 11:27:53;;;;;;;14.30;7.03;;;10.40;99.90;;;;;;5088944;28;20202;-61
2022/01/02 11:30:51;;;;;;;6.67;4.90;;;10.40;99.90;;;;;;5059214;28;20192;-61
2022/01/02 11:33:20;;;;;;;6.20;4.40;;;10.40;99.90;;;;;;4999898;28;20218;-60
2022/01/02 11:35:49;;;;;;;7.10;4.37;;;10.40;99.90;;;;;;5060849;28;20208;-62
2022/01/02 11:38:19;;;;;;;8.10;5.70;;;10.40;99.90;;;;;;5086977;28;20242;-62
2022/01/02 11:40:51;;;;;;;6.13;4.37;;;10.50;99.90;;;;;;5078589;28;20287;-59
2022/01/02 11:43:55;;;;;;;8.13;5.27;;;10.40;99.90;;;;;;5080706;28;20285;-60
2022/01/02 11:46:26;;;;;;;9.67;6.40;;;10.50;99.90;;;;;;5054945;28;20686;-61
2022/01/02 11:49:18;;;;;;;7.53;5.27;;;10.50;99.90;;;;;;5084228;28;20639;-62
2022/01/02 11:52:23;;;;;;;7.37;5.20;;;10.50;99.90;;;;;;5057857;28;20200;-62
2022/01/02 11:54:59;;;;;;;4.60;3.87;;;10.50;99.90;;;;;;5089928;28;20208;-61
2022/01/02 11:57:55;;;;;;;4.67;3.83;;;10.50;99.90;;;;;;5084537;28;20252;-60
2022/01/02 12:00:37;;;;;;;7.83;4.57;;;10.50;99.90;;;;;;5079963;28;20206;-60
2022/01/02 12:03:04;;;;;;;4.03;3.60;;;10.50;99.90;;;;;;5088976;28;20194;-60
2022/01/02 12:05:32;;;;;;;3.73;3.00;;;10.50;99.90;;;;;;5087818;28;20254;-60
2022/01/02 12:08:00;;;;;;;7.53;4.70;;;10.50;99.90;;;;;;5085258;28;20196;-60
2022/01/02 12:10:31;;;;;;;6.10;4.10;;;10.50;99.90;;;;;;5089837;28;20202;-60
2022/01/02 12:13:16;;;;;;;5.03;4.10;;;10.50;99.90;;;;;;5091349;28;20198;-60
2022/01/02 12:16:10;;;;;;;5.27;4.30;;;10.50;99.90;;;;;;5091418;28;20227;-60
2022/01/02 12:18:57;;;;;;;7.90;5.40;;;10.50;99.90;;;;;;5087241;28;20286;-59
2022/01/02 12:21:24;;;;;;;9.47;4.67;;;10.50;99.90;;;;;;5090426;28;20207;-60
2022/01/02 12:23:56;;;;;;;5.13;4.17;;;10.50;99.90;;;;;;5092339;28;20196;-60
2022/01/02 12:26:29;;;;;;;7.83;4.93;;;10.50;99.90;;;;;;5087000;28;20254;-61
2022/01/02 12:29:01;;;;;;;5.73;4.57;;;10.50;99.90;;;;;;5083298;28;20215;-60
2022/01/02 12:31:32;;;;;;;5.43;4.07;;;10.50;99.90;;;;;;5085556;28;20403;-60
2022/01/02 12:34:13;;;;;;;4.97;3.83;;;10.50;99.90;;;;;;5091507;28;20206;-60
2022/01/02 12:36:42;;;;;;;6.83;3.93;;;10.50;99.90;;;;;;5080242;28;20188;-60
2022/01/02 12:39:11;;;;;;;4.47;3.00;;;10.60;99.90;;;;;;5061267;28;20208;-60
2022/01/02 12:41:40;;;;;;;3.00;2.70;;;10.60;99.90;;;;;;5090987;28;20205;-60
2022/01/02 12:44:11;;;;;;;3.10;2.60;;;10.60;99.90;;;;;;5072551;28;20663;-60
2022/01/02 12:46:41;;;;;;;3.63;3.20;;;10.60;99.90;;;;;;5087701;28;21055;-60
2022/01/02 12:49:10;;;;;;;4.93;3.50;;;10.60;99.90;;;;;;5090811;28;20195;-60
2022/01/02 12:51:39;;;;;;;4.43;3.30;;;10.60;99.90;;;;;;5057218;28;20204;-60
2022/01/02 12:54:09;;;;;;;2.87;2.50;;;10.60;99.90;;;;;;5087892;28;20234;-60
2022/01/02 12:56:39;;;;;;;3.33;2.73;;;10.60;99.90;;;;;;5076725;28;20286;-61
2022/01/02 12:59:23;;;;;;;3.30;2.67;;;10.60;99.90;;;;;;5090455;28;20199;-60
2022/01/02 13:01:59;;;;;;;2.67;2.13;;;10.70;99.90;;;;;;5077927;28;20190;-60
2022/01/02 13:04:28;;;;;;;2.43;2.23;;;10.70;99.90;;;;;;5083678;28;20218;-60